sensor_id;sensor_type;location;lat;lon;timestamp;temperature;humidity
46898;DHT22;32646;50.958;6.258;2024-03-02T00:00:29;8.80;17.80
46898;DHT22;32646;50.958;6.258;2024-03-02T00:02:56;8.70;18.50
46898;DHT22;32646;50.958;6.258;2024-03-02T00:05:23;8.70;17.90
46898;DHT22;32646;50.958;6.258;2024-03-02T00:07:57;8.70;18.40
46898;DHT22;32646;50.958;6.258;2024-03-02T00:10:38;8.80;18.70
46898;DHT22;32646;50.958;6.258;2024-03-02T00:13:08;8.70;18.50
46898;DHT22;32646;50.958;6.258;2024-03-02T00:15:48;8.80;18.10
46898;DHT22;32646;50.958;6.258;2024-03-02T00:18:30;8.80;18.50
46898;DHT22;32646;50.958;6.258;2024-03-02T00:20:58;8.70;19.00
46898;DHT22;32646;50.958;6.258;2024-03-02T00:23:30;8.80;18.30
46898;DHT22;32646;50.958;6.258;2024-03-02T00:25:57;8.80;19.20
46898;DHT22;32646;50.958;6.258;2024-03-02T00:28:25;8.60;20.70
46898;DHT22;32646;50.958;6.258;2024-03-02T00:30:58;8.40;22.90
46898;DHT22;32646;50.958;6.258;2024-03-02T00:33:34;8.30;24.00
46898;DHT22;32646;50.958;6.258;2024-03-02T00:36:05;8.30;23.30
46898;DHT22;32646;50.958;6.258;2024-03-02T00:38:33;8.40;22.90
46898;DHT22;32646;50.958;6.258;2024-03-02T00:41:04;8.40;24.00
46898;DHT22;32646;50.958;6.258;2024-03-02T00:46:20;8.70;20.40
46898;DHT22;32646;50.958;6.258;2024-03-02T00:48:57;9.00;18.70
46898;DHT22;32646;50.958;6.258;2024-03-02T00:51:27;9.10;17.00
46898;DHT22;32646;50.958;6.258;2024-03-02T00:53:57;9.20;17.00
46898;DHT22;32646;50.958;6.258;2024-03-02T00:56:24;9.10;17.70
46898;DHT22;32646;50.958;6.258;2024-03-02T00:58:51;9.10;17.30
46898;DHT22;32646;50.958;6.258;2024-03-02T01:01:19;9.20;16.20
46898;DHT22;32646;50.958;6.258;2024-03-02T01:03:46;9.00;17.30
46898;DHT22;32646;50.958;6.258;2024-03-02T01:06:13;9.10;16.90
46898;DHT22;32646;50.958;6.258;2024-03-02T01:08:40;8.90;17.50
46898;DHT22;32646;50.958;6.258;2024-03-02T01:11:07;8.90;17.50
46898;DHT22;32646;50.958;6.258;2024-03-02T01:13:34;9.00;17.10
46898;DHT22;32646;50.958;6.258;2024-03-02T01:16:01;9.00;17.60
46898;DHT22;32646;50.958;6.258;2024-03-02T01:18:28;9.00;18.40
46898;DHT22;32646;50.958;6.258;2024-03-02T01:20:55;9.10;17.00
46898;DHT22;32646;50.958;6.258;2024-03-02T01:23:22;9.20;17.20
46898;DHT22;32646;50.958;6.258;2024-03-02T01:25:50;9.30;16.20
46898;DHT22;32646;50.958;6.258;2024-03-02T01:28:18;9.30;15.80
46898;DHT22;32646;50.958;6.258;2024-03-02T01:30:45;9.50;14.60
46898;DHT22;32646;50.958;6.258;2024-03-02T01:33:11;9.50;14.50
46898;DHT22;32646;50.958;6.258;2024-03-02T01:35:38;9.50;14.50
46898;DHT22;32646;50.958;6.258;2024-03-02T01:38:05;9.50;14.20
46898;DHT22;32646;50.958;6.258;2024-03-02T01:40:36;9.50;15.00
46898;DHT22;32646;50.958;6.258;2024-03-02T01:43:07;9.50;14.60
46898;DHT22;32646;50.958;6.258;2024-03-02T01:45:34;9.60;13.40
46898;DHT22;32646;50.958;6.258;2024-03-02T01:48:01;9.60;14.20
46898;DHT22;32646;50.958;6.258;2024-03-02T01:50:29;9.60;13.20
46898;DHT22;32646;50.958;6.258;2024-03-02T01:52:58;9.70;13.00
46898;DHT22;32646;50.958;6.258;2024-03-02T01:55:24;9.80;12.30
46898;DHT22;32646;50.958;6.258;2024-03-02T01:57:52;9.80;12.40
46898;DHT22;32646;50.958;6.258;2024-03-02T02:00:19;9.90;12.50
46898;DHT22;32646;50.958;6.258;2024-03-02T02:02:50;9.90;11.90
46898;DHT22;32646;50.958;6.258;2024-03-02T02:05:17;9.90;13.00
46898;DHT22;32646;50.958;6.258;2024-03-02T02:07:44;9.80;13.30
46898;DHT22;32646;50.958;6.258;2024-03-02T02:10:11;9.80;14.60
46898;DHT22;32646;50.958;6.258;2024-03-02T02:12:38;9.70;16.90
46898;DHT22;32646;50.958;6.258;2024-03-02T02:15:25;9.40;21.10
46898;DHT22;32646;50.958;6.258;2024-03-02T02:17:53;9.10;24.90
46898;DHT22;32646;50.958;6.258;2024-03-02T02:20:20;9.00;28.20
46898;DHT22;32646;50.958;6.258;2024-03-02T02:23:01;8.80;33.40
46898;DHT22;32646;50.958;6.258;2024-03-02T02:25:28;8.50;39.80
46898;DHT22;32646;50.958;6.258;2024-03-02T02:27:56;8.20;46.20
46898;DHT22;32646;50.958;6.258;2024-03-02T02:30:25;8.00;53.80
46898;DHT22;32646;50.958;6.258;2024-03-02T02:32:52;7.80;59.60
46898;DHT22;32646;50.958;6.258;2024-03-02T02:35:20;7.70;63.70
46898;DHT22;32646;50.958;6.258;2024-03-02T02:37:47;7.60;68.00
46898;DHT22;32646;50.958;6.258;2024-03-02T02:40:14;7.50;69.90
46898;DHT22;32646;50.958;6.258;2024-03-02T02:42:41;7.40;73.60
46898;DHT22;32646;50.958;6.258;2024-03-02T02:45:08;7.50;73.40
46898;DHT22;32646;50.958;6.258;2024-03-02T02:47:35;7.40;74.30
46898;DHT22;32646;50.958;6.258;2024-03-02T02:50:07;7.40;71.20
46898;DHT22;32646;50.958;6.258;2024-03-02T02:52:34;7.40;66.80
46898;DHT22;32646;50.958;6.258;2024-03-02T02:55:05;7.40;65.70
46898;DHT22;32646;50.958;6.258;2024-03-02T02:57:33;7.40;67.20
46898;DHT22;32646;50.958;6.258;2024-03-02T03:00:00;7.40;67.10
46898;DHT22;32646;50.958;6.258;2024-03-02T03:02:28;7.40;68.50
46898;DHT22;32646;50.958;6.258;2024-03-02T03:04:54;7.30;71.00
46898;DHT22;32646;50.958;6.258;2024-03-02T03:07:21;7.30;72.10
46898;DHT22;32646;50.958;6.258;2024-03-02T03:09:48;7.30;71.90
46898;DHT22;32646;50.958;6.258;2024-03-02T03:12:14;7.20;73.50
46898;DHT22;32646;50.958;6.258;2024-03-02T03:14:41;7.30;73.60
46898;DHT22;32646;50.958;6.258;2024-03-02T03:17:08;7.30;72.40
46898;DHT22;32646;50.958;6.258;2024-03-02T03:19:34;7.30;72.60
46898;DHT22;32646;50.958;6.258;2024-03-02T03:22:01;7.30;70.30
46898;DHT22;32646;50.958;6.258;2024-03-02T03:24:28;7.30;71.00
46898;DHT22;32646;50.958;6.258;2024-03-02T03:26:55;7.30;73.60
46898;DHT22;32646;50.958;6.258;2024-03-02T03:29:21;7.20;75.00
46898;DHT22;32646;50.958;6.258;2024-03-02T03:31:48;7.20;75.60
46898;DHT22;32646;50.958;6.258;2024-03-02T03:34:14;7.20;74.50
46898;DHT22;32646;50.958;6.258;2024-03-02T03:36:42;7.20;75.50
46898;DHT22;32646;50.958;6.258;2024-03-02T03:39:08;7.10;78.80
46898;DHT22;32646;50.958;6.258;2024-03-02T03:41:35;7.10;81.80
46898;DHT22;32646;50.958;6.258;2024-03-02T03:44:02;7.10;83.60
46898;DHT22;32646;50.958;6.258;2024-03-02T03:46:28;7.00;85.70
46898;DHT22;32646;50.958;6.258;2024-03-02T03:48:55;7.00;87.80
46898;DHT22;32646;50.958;6.258;2024-03-02T03:51:22;6.90;89.20
46898;DHT22;32646;50.958;6.258;2024-03-02T03:53:49;7.00;89.20
46898;DHT22;32646;50.958;6.258;2024-03-02T03:56:15;6.90;90.00
46898;DHT22;32646;50.958;6.258;2024-03-02T03:58:42;6.90;90.90
46898;DHT22;32646;50.958;6.258;2024-03-02T04:01:09;7.00;89.70
46898;DHT22;32646;50.958;6.258;2024-03-02T04:03:35;7.00;87.50
46898;DHT22;32646;50.958;6.258;2024-03-02T04:06:02;7.10;83.90
46898;DHT22;32646;50.958;6.258;2024-03-02T04:08:29;7.20;76.40
46898;DHT22;32646;50.958;6.258;2024-03-02T04:10:56;7.40;69.60
46898;DHT22;32646;50.958;6.258;2024-03-02T04:13:23;7.50;65.10
46898;DHT22;32646;50.958;6.258;2024-03-02T04:15:50;7.60;63.00
46898;DHT22;32646;50.958;6.258;2024-03-02T04:18:16;7.50;65.50
46898;DHT22;32646;50.958;6.258;2024-03-02T04:20:43;7.40;68.00
46898;DHT22;32646;50.958;6.258;2024-03-02T04:23:10;7.40;70.10
46898;DHT22;32646;50.958;6.258;2024-03-02T04:25:36;7.40;71.90
46898;DHT22;32646;50.958;6.258;2024-03-02T04:28:03;7.30;72.10
46898;DHT22;32646;50.958;6.258;2024-03-02T04:30:30;7.20;74.60
46898;DHT22;32646;50.958;6.258;2024-03-02T04:32:57;7.20;75.10
46898;DHT22;32646;50.958;6.258;2024-03-02T04:35:24;7.40;64.90
46898;DHT22;32646;50.958;6.258;2024-03-02T04:37:50;7.60;57.10
46898;DHT22;32646;50.958;6.258;2024-03-02T04:40:17;7.60;55.00
46898;DHT22;32646;50.958;6.258;2024-03-02T04:42:44;7.80;49.30
46898;DHT22;32646;50.958;6.258;2024-03-02T04:45:11;7.90;45.80
46898;DHT22;32646;50.958;6.258;2024-03-02T04:47:37;7.90;46.90
46898;DHT22;32646;50.958;6.258;2024-03-02T04:50:04;7.90;43.70
46898;DHT22;32646;50.958;6.258;2024-03-02T04:52:31;8.00;41.50
46898;DHT22;32646;50.958;6.258;2024-03-02T04:54:58;8.00;40.10
46898;DHT22;32646;50.958;6.258;2024-03-02T04:57:25;8.00;41.40
46898;DHT22;32646;50.958;6.258;2024-03-02T04:59:51;7.90;44.70
46898;DHT22;32646;50.958;6.258;2024-03-02T05:02:18;7.80;45.90
46898;DHT22;32646;50.958;6.258;2024-03-02T05:04:45;7.70;50.70
46898;DHT22;32646;50.958;6.258;2024-03-02T05:07:11;7.60;54.00
46898;DHT22;32646;50.958;6.258;2024-03-02T05:09:39;7.50;55.90
46898;DHT22;32646;50.958;6.258;2024-03-02T05:12:06;7.50;57.20
46898;DHT22;32646;50.958;6.258;2024-03-02T05:14:33;7.40;56.80
46898;DHT22;32646;50.958;6.258;2024-03-02T05:16:59;7.40;57.00
46898;DHT22;32646;50.958;6.258;2024-03-02T05:19:26;7.40;56.60
46898;DHT22;32646;50.958;6.258;2024-03-02T05:21:52;7.50;53.20
46898;DHT22;32646;50.958;6.258;2024-03-02T05:24:19;7.60;49.10
46898;DHT22;32646;50.958;6.258;2024-03-02T05:26:46;7.60;47.50
46898;DHT22;32646;50.958;6.258;2024-03-02T05:29:13;7.80;42.00
46898;DHT22;32646;50.958;6.258;2024-03-02T05:31:39;7.70;43.60
46898;DHT22;32646;50.958;6.258;2024-03-02T05:34:06;7.80;41.10
46898;DHT22;32646;50.958;6.258;2024-03-02T05:36:33;7.80;42.30
46898;DHT22;32646;50.958;6.258;2024-03-02T05:38:59;7.80;42.30
46898;DHT22;32646;50.958;6.258;2024-03-02T05:41:26;7.70;44.10
46898;DHT22;32646;50.958;6.258;2024-03-02T05:43:53;7.60;46.10
46898;DHT22;32646;50.958;6.258;2024-03-02T05:46:19;7.60;46.60
46898;DHT22;32646;50.958;6.258;2024-03-02T05:48:46;7.60;48.30
46898;DHT22;32646;50.958;6.258;2024-03-02T05:51:13;7.60;49.60
46898;DHT22;32646;50.958;6.258;2024-03-02T05:53:39;7.50;52.60
46898;DHT22;32646;50.958;6.258;2024-03-02T05:56:06;7.40;55.10
46898;DHT22;32646;50.958;6.258;2024-03-02T05:58:33;7.40;55.10
46898;DHT22;32646;50.958;6.258;2024-03-02T06:00:59;7.40;52.50
46898;DHT22;32646;50.958;6.258;2024-03-02T06:03:26;7.50;49.20
46898;DHT22;32646;50.958;6.258;2024-03-02T06:05:53;7.50;50.80
46898;DHT22;32646;50.958;6.258;2024-03-02T06:08:20;7.50;51.30
46898;DHT22;32646;50.958;6.258;2024-03-02T06:10:46;7.50;50.80
46898;DHT22;32646;50.958;6.258;2024-03-02T06:13:13;7.50;48.20
46898;DHT22;32646;50.958;6.258;2024-03-02T06:15:40;7.60;44.60
46898;DHT22;32646;50.958;6.258;2024-03-02T06:18:06;7.70;42.00
46898;DHT22;32646;50.958;6.258;2024-03-02T06:20:33;7.80;40.30
46898;DHT22;32646;50.958;6.258;2024-03-02T06:23:03;7.80;39.60
46898;DHT22;32646;50.958;6.258;2024-03-02T06:25:30;7.80;40.60
46898;DHT22;32646;50.958;6.258;2024-03-02T06:27:57;7.80;41.00
46898;DHT22;32646;50.958;6.258;2024-03-02T06:30:24;7.60;43.50
46898;DHT22;32646;50.958;6.258;2024-03-02T06:32:50;7.60;46.50
46898;DHT22;32646;50.958;6.258;2024-03-02T06:35:17;7.50;47.20
46898;DHT22;32646;50.958;6.258;2024-03-02T06:37:44;7.50;48.80
46898;DHT22;32646;50.958;6.258;2024-03-02T06:40:11;7.40;50.10
46898;DHT22;32646;50.958;6.258;2024-03-02T06:42:37;7.40;50.30
46898;DHT22;32646;50.958;6.258;2024-03-02T06:45:04;7.40;51.60
46898;DHT22;32646;50.958;6.258;2024-03-02T06:47:31;7.50;49.00
46898;DHT22;32646;50.958;6.258;2024-03-02T06:49:58;7.50;48.20
46898;DHT22;32646;50.958;6.258;2024-03-02T06:52:24;7.50;48.80
46898;DHT22;32646;50.958;6.258;2024-03-02T06:54:51;7.60;42.60
46898;DHT22;32646;50.958;6.258;2024-03-02T06:57:18;7.80;39.40
46898;DHT22;32646;50.958;6.258;2024-03-02T06:59:45;7.80;38.80
46898;DHT22;32646;50.958;6.258;2024-03-02T07:02:12;7.80;38.90
46898;DHT22;32646;50.958;6.258;2024-03-02T07:04:38;7.80;36.00
46898;DHT22;32646;50.958;6.258;2024-03-02T07:07:05;7.80;38.10
46898;DHT22;32646;50.958;6.258;2024-03-02T07:09:32;7.80;37.70
46898;DHT22;32646;50.958;6.258;2024-03-02T07:11:58;7.90;35.60
46898;DHT22;32646;50.958;6.258;2024-03-02T07:14:25;7.90;36.00
46898;DHT22;32646;50.958;6.258;2024-03-02T07:16:52;7.90;35.80
46898;DHT22;32646;50.958;6.258;2024-03-02T07:19:20;7.90;35.60
46898;DHT22;32646;50.958;6.258;2024-03-02T07:21:47;7.90;34.60
46898;DHT22;32646;50.958;6.258;2024-03-02T07:24:13;7.90;36.10
46898;DHT22;32646;50.958;6.258;2024-03-02T07:26:40;7.80;34.80
46898;DHT22;32646;50.958;6.258;2024-03-02T07:29:10;7.80;34.30
46898;DHT22;32646;50.958;6.258;2024-03-02T07:31:36;7.80;33.80
46898;DHT22;32646;50.958;6.258;2024-03-02T07:34:03;7.80;34.40
46898;DHT22;32646;50.958;6.258;2024-03-02T07:36:30;7.80;34.00
46898;DHT22;32646;50.958;6.258;2024-03-02T07:38:57;7.80;35.70
46898;DHT22;32646;50.958;6.258;2024-03-02T07:41:23;7.80;35.50
46898;DHT22;32646;50.958;6.258;2024-03-02T07:43:50;7.70;35.10
46898;DHT22;32646;50.958;6.258;2024-03-02T07:46:17;7.80;35.10
46898;DHT22;32646;50.958;6.258;2024-03-02T07:48:44;7.80;33.10
46898;DHT22;32646;50.958;6.258;2024-03-02T07:51:10;7.80;33.20
46898;DHT22;32646;50.958;6.258;2024-03-02T07:53:37;7.80;35.30
46898;DHT22;32646;50.958;6.258;2024-03-02T07:56:04;8.00;31.70
46898;DHT22;32646;50.958;6.258;2024-03-02T07:58:31;8.10;32.10
46898;DHT22;32646;50.958;6.258;2024-03-02T08:00:58;8.20;30.10
46898;DHT22;32646;50.958;6.258;2024-03-02T08:03:25;8.30;28.60
46898;DHT22;32646;50.958;6.258;2024-03-02T08:05:52;8.30;28.60
46898;DHT22;32646;50.958;6.258;2024-03-02T08:08:18;9.10;25.80
46898;DHT22;32646;50.958;6.258;2024-03-02T08:10:45;9.90;19.90
46898;DHT22;32646;50.958;6.258;2024-03-02T08:13:12;10.80;14.80
46898;DHT22;32646;50.958;6.258;2024-03-02T08:15:38;11.40;9.90
46898;DHT22;32646;50.958;6.258;2024-03-02T08:18:05;11.90;10.00
46898;DHT22;32646;50.958;6.258;2024-03-02T08:20:32;12.20;5.70
46898;DHT22;32646;50.958;6.258;2024-03-02T08:22:59;12.00;4.90
46898;DHT22;32646;50.958;6.258;2024-03-02T08:25:26;12.30;2.60
46898;DHT22;32646;50.958;6.258;2024-03-02T08:27:52;12.00;4.50
46898;DHT22;32646;50.958;6.258;2024-03-02T08:30:19;12.10;6.80
46898;DHT22;32646;50.958;6.258;2024-03-02T08:32:46;11.80;4.90
46898;DHT22;32646;50.958;6.258;2024-03-02T08:35:13;11.60;4.60
46898;DHT22;32646;50.958;6.258;2024-03-02T08:37:41;11.60;4.20
46898;DHT22;32646;50.958;6.258;2024-03-02T08:40:08;10.80;7.40
46898;DHT22;32646;50.958;6.258;2024-03-02T08:42:35;10.00;9.80
46898;DHT22;32646;50.958;6.258;2024-03-02T08:45:02;9.70;12.60
46898;DHT22;32646;50.958;6.258;2024-03-02T08:47:29;9.50;12.90
46898;DHT22;32646;50.958;6.258;2024-03-02T08:49:56;9.30;14.70
46898;DHT22;32646;50.958;6.258;2024-03-02T08:52:27;9.20;13.90
46898;DHT22;32646;50.958;6.258;2024-03-02T08:54:54;9.20;14.80
46898;DHT22;32646;50.958;6.258;2024-03-02T08:57:20;9.10;15.60
46898;DHT22;32646;50.958;6.258;2024-03-02T08:59:47;9.10;16.30
46898;DHT22;32646;50.958;6.258;2024-03-02T09:02:14;9.00;16.40
46898;DHT22;32646;50.958;6.258;2024-03-02T09:04:41;9.20;14.30
46898;DHT22;32646;50.958;6.258;2024-03-02T09:07:08;9.20;13.70
46898;DHT22;32646;50.958;6.258;2024-03-02T09:09:34;9.30;13.60
46898;DHT22;32646;50.958;6.258;2024-03-02T09:12:01;9.30;12.00
46898;DHT22;32646;50.958;6.258;2024-03-02T09:14:28;9.30;12.00
46898;DHT22;32646;50.958;6.258;2024-03-02T09:16:54;9.30;11.50
46898;DHT22;32646;50.958;6.258;2024-03-02T09:19:21;9.30;12.80
46898;DHT22;32646;50.958;6.258;2024-03-02T09:21:48;9.30;13.30
46898;DHT22;32646;50.958;6.258;2024-03-02T09:24:15;9.40;12.70
46898;DHT22;32646;50.958;6.258;2024-03-02T09:26:44;9.50;13.40
46898;DHT22;32646;50.958;6.258;2024-03-02T09:29:11;9.60;12.40
46898;DHT22;32646;50.958;6.258;2024-03-02T09:31:41;10.20;9.40
46898;DHT22;32646;50.958;6.258;2024-03-02T09:34:08;10.70;9.00
46898;DHT22;32646;50.958;6.258;2024-03-02T09:36:35;11.00;5.90
46898;DHT22;32646;50.958;6.258;2024-03-02T09:39:02;11.10;7.40
46898;DHT22;32646;50.958;6.258;2024-03-02T09:41:29;11.20;5.90
46898;DHT22;32646;50.958;6.258;2024-03-02T09:43:55;11.80;6.70
46898;DHT22;32646;50.958;6.258;2024-03-02T09:46:22;11.90;1.80
46898;DHT22;32646;50.958;6.258;2024-03-02T09:48:49;12.10;2.30
46898;DHT22;32646;50.958;6.258;2024-03-02T09:51:16;12.40;2.90
46898;DHT22;32646;50.958;6.258;2024-03-02T09:53:43;12.60;1.00
46898;DHT22;32646;50.958;6.258;2024-03-02T09:56:09;11.80;2.10
46898;DHT22;32646;50.958;6.258;2024-03-02T09:58:36;11.10;4.00
46898;DHT22;32646;50.958;6.258;2024-03-02T10:01:06;10.90;7.40
46898;DHT22;32646;50.958;6.258;2024-03-02T10:03:34;10.70;6.60
46898;DHT22;32646;50.958;6.258;2024-03-02T10:06:23;10.70;7.00
46898;DHT22;32646;50.958;6.258;2024-03-02T10:08:51;11.60;1.80
46898;DHT22;32646;50.958;6.258;2024-03-02T10:11:32;12.40;1.50
46898;DHT22;32646;50.958;6.258;2024-03-02T10:14:09;12.50;1.00
46898;DHT22;32646;50.958;6.258;2024-03-02T10:16:37;12.90;1.00
46898;DHT22;32646;50.958;6.258;2024-03-02T10:19:23;13.00;1.00
46898;DHT22;32646;50.958;6.258;2024-03-02T10:21:51;13.20;1.00
46898;DHT22;32646;50.958;6.258;2024-03-02T10:24:20;12.60;1.00
46898;DHT22;32646;50.958;6.258;2024-03-02T10:26:48;12.70;1.00
46898;DHT22;32646;50.958;6.258;2024-03-02T10:29:15;13.30;1.00
46898;DHT22;32646;50.958;6.258;2024-03-02T10:31:44;13.60;1.00
46898;DHT22;32646;50.958;6.258;2024-03-02T10:34:11;14.20;1.00
46898;DHT22;32646;50.958;6.258;2024-03-02T10:36:41;13.70;1.00
46898;DHT22;32646;50.958;6.258;2024-03-02T10:39:09;13.70;1.00
46898;DHT22;32646;50.958;6.258;2024-03-02T10:41:37;14.40;1.00
46898;DHT22;32646;50.958;6.258;2024-03-02T10:44:06;14.20;1.00
46898;DHT22;32646;50.958;6.258;2024-03-02T10:46:34;13.90;1.00
46898;DHT22;32646;50.958;6.258;2024-03-02T10:49:03;14.00;1.00
46898;DHT22;32646;50.958;6.258;2024-03-02T10:51:33;14.70;1.00
46898;DHT22;32646;50.958;6.258;2024-03-02T10:54:01;14.50;1.00
46898;DHT22;32646;50.958;6.258;2024-03-02T10:56:30;14.60;1.00
46898;DHT22;32646;50.958;6.258;2024-03-02T10:59:13;15.20;1.00
46898;DHT22;32646;50.958;6.258;2024-03-02T11:01:43;15.20;1.00
46898;DHT22;32646;50.958;6.258;2024-03-02T11:04:12;15.00;1.00
46898;DHT22;32646;50.958;6.258;2024-03-02T11:06:40;14.80;1.00
46898;DHT22;32646;50.958;6.258;2024-03-02T11:09:09;14.60;1.00
46898;DHT22;32646;50.958;6.258;2024-03-02T11:11:43;14.40;1.00
46898;DHT22;32646;50.958;6.258;2024-03-02T11:14:14;14.30;1.00
46898;DHT22;32646;50.958;6.258;2024-03-02T11:16:43;14.60;1.00
46898;DHT22;32646;50.958;6.258;2024-03-02T11:19:13;14.30;1.00
46898;DHT22;32646;50.958;6.258;2024-03-02T11:21:43;14.00;1.00
46898;DHT22;32646;50.958;6.258;2024-03-02T11:26:53;14.20;1.00
46898;DHT22;32646;50.958;6.258;2024-03-02T11:29:43;14.50;1.00
46898;DHT22;32646;50.958;6.258;2024-03-02T11:32:18;14.70;1.00
46898;DHT22;32646;50.958;6.258;2024-03-02T11:34:48;14.50;1.00
46898;DHT22;32646;50.958;6.258;2024-03-02T11:37:16;14.50;1.00
46898;DHT22;32646;50.958;6.258;2024-03-02T11:39:44;14.70;1.00
46898;DHT22;32646;50.958;6.258;2024-03-02T11:42:12;15.00;1.00
46898;DHT22;32646;50.958;6.258;2024-03-02T11:44:42;15.70;1.00
46898;DHT22;32646;50.958;6.258;2024-03-02T11:47:11;15.60;1.00
46898;DHT22;32646;50.958;6.258;2024-03-02T11:49:45;15.50;1.00
46898;DHT22;32646;50.958;6.258;2024-03-02T11:52:13;15.30;1.00
46898;DHT22;32646;50.958;6.258;2024-03-02T11:54:47;15.50;1.00
46898;DHT22;32646;50.958;6.258;2024-03-02T11:57:16;15.40;1.00
46898;DHT22;32646;50.958;6.258;2024-03-02T11:59:43;15.10;1.00
46898;DHT22;32646;50.958;6.258;2024-03-02T12:02:20;15.10;1.00
46898;DHT22;32646;50.958;6.258;2024-03-02T12:04:48;14.80;1.00
46898;DHT22;32646;50.958;6.258;2024-03-02T12:07:25;14.80;1.00
46898;DHT22;32646;50.958;6.258;2024-03-02T12:10:01;14.50;1.00
46898;DHT22;32646;50.958;6.258;2024-03-02T12:12:29;14.90;1.00
46898;DHT22;32646;50.958;6.258;2024-03-02T12:14:56;14.80;1.00
46898;DHT22;32646;50.958;6.258;2024-03-02T12:17:23;14.60;1.00
46898;DHT22;32646;50.958;6.258;2024-03-02T12:19:49;14.40;1.00
46898;DHT22;32646;50.958;6.258;2024-03-02T12:22:16;14.40;1.00
46898;DHT22;32646;50.958;6.258;2024-03-02T12:24:45;14.30;1.00
46898;DHT22;32646;50.958;6.258;2024-03-02T12:27:14;14.40;1.00
46898;DHT22;32646;50.958;6.258;2024-03-02T12:29:42;14.50;1.00
46898;DHT22;32646;50.958;6.258;2024-03-02T12:32:09;14.40;1.00
46898;DHT22;32646;50.958;6.258;2024-03-02T12:34:38;14.40;1.00
46898;DHT22;32646;50.958;6.258;2024-03-02T12:37:05;14.20;1.00
46898;DHT22;32646;50.958;6.258;2024-03-02T12:39:32;14.50;1.00
46898;DHT22;32646;50.958;6.258;2024-03-02T12:41:59;14.50;1.00
46898;DHT22;32646;50.958;6.258;2024-03-02T12:44:25;14.70;1.00
46898;DHT22;32646;50.958;6.258;2024-03-02T12:46:52;15.00;1.00
46898;DHT22;32646;50.958;6.258;2024-03-02T12:49:23;15.00;1.00
46898;DHT22;32646;50.958;6.258;2024-03-02T12:51:50;15.00;1.00
46898;DHT22;32646;50.958;6.258;2024-03-02T12:54:16;15.00;1.00
46898;DHT22;32646;50.958;6.258;2024-03-02T12:56:43;15.00;1.00
46898;DHT22;32646;50.958;6.258;2024-03-02T12:59:10;14.90;1.00
46898;DHT22;32646;50.958;6.258;2024-03-02T13:01:51;14.60;1.00
46898;DHT22;32646;50.958;6.258;2024-03-02T13:04:22;14.60;1.00
46898;DHT22;32646;50.958;6.258;2024-03-02T13:06:49;14.50;1.00
46898;DHT22;32646;50.958;6.258;2024-03-02T13:09:16;14.40;1.00
46898;DHT22;32646;50.958;6.258;2024-03-02T13:11:43;14.20;1.00
46898;DHT22;32646;50.958;6.258;2024-03-02T13:14:12;14.10;1.00
46898;DHT22;32646;50.958;6.258;2024-03-02T13:16:39;14.10;1.00
46898;DHT22;32646;50.958;6.258;2024-03-02T13:19:13;14.10;1.00
46898;DHT22;32646;50.958;6.258;2024-03-02T13:21:40;13.80;1.00
46898;DHT22;32646;50.958;6.258;2024-03-02T13:24:07;13.80;1.00
46898;DHT22;32646;50.958;6.258;2024-03-02T13:26:34;13.70;1.00
46898;DHT22;32646;50.958;6.258;2024-03-02T13:29:00;13.70;1.00
46898;DHT22;32646;50.958;6.258;2024-03-02T13:31:27;13.60;1.00
46898;DHT22;32646;50.958;6.258;2024-03-02T13:33:54;13.70;1.00
46898;DHT22;32646;50.958;6.258;2024-03-02T13:36:20;13.70;1.50
46898;DHT22;32646;50.958;6.258;2024-03-02T13:38:47;13.60;1.00
46898;DHT22;32646;50.958;6.258;2024-03-02T13:41:14;13.60;1.00
46898;DHT22;32646;50.958;6.258;2024-03-02T13:43:41;13.50;1.00
46898;DHT22;32646;50.958;6.258;2024-03-02T13:46:07;13.50;1.60
46898;DHT22;32646;50.958;6.258;2024-03-02T13:48:34;13.60;2.40
46898;DHT22;32646;50.958;6.258;2024-03-02T13:51:01;13.60;1.90
46898;DHT22;32646;50.958;6.258;2024-03-02T13:53:27;13.60;2.80
46898;DHT22;32646;50.958;6.258;2024-03-02T13:55:54;13.70;2.30
46898;DHT22;32646;50.958;6.258;2024-03-02T13:58:21;13.70;2.90
46898;DHT22;32646;50.958;6.258;2024-03-02T14:00:47;13.90;2.30
46898;DHT22;32646;50.958;6.258;2024-03-02T14:03:14;13.80;1.00
46898;DHT22;32646;50.958;6.258;2024-03-02T14:05:41;13.80;1.00
46898;DHT22;32646;50.958;6.258;2024-03-02T14:08:07;13.80;1.00
46898;DHT22;32646;50.958;6.258;2024-03-02T14:10:34;13.90;1.40
46898;DHT22;32646;50.958;6.258;2024-03-02T14:13:01;13.90;1.10
46898;DHT22;32646;50.958;6.258;2024-03-02T14:15:28;14.00;1.00
46898;DHT22;32646;50.958;6.258;2024-03-02T14:17:54;14.10;1.00
46898;DHT22;32646;50.958;6.258;2024-03-02T14:20:21;13.90;1.00
46898;DHT22;32646;50.958;6.258;2024-03-02T14:22:48;14.00;1.00
46898;DHT22;32646;50.958;6.258;2024-03-02T14:25:15;14.00;3.10
46898;DHT22;32646;50.958;6.258;2024-03-02T14:27:42;13.90;2.80
46898;DHT22;32646;50.958;6.258;2024-03-02T14:30:29;13.90;1.90
46898;DHT22;32646;50.958;6.258;2024-03-02T14:32:55;14.40;3.00
46898;DHT22;32646;50.958;6.258;2024-03-02T14:35:22;14.80;1.00
46898;DHT22;32646;50.958;6.258;2024-03-02T14:37:49;14.60;1.00
46898;DHT22;32646;50.958;6.258;2024-03-02T14:40:16;14.20;1.00
46898;DHT22;32646;50.958;6.258;2024-03-02T14:42:42;13.90;2.60
46898;DHT22;32646;50.958;6.258;2024-03-02T14:45:09;13.80;2.60
46898;DHT22;32646;50.958;6.258;2024-03-02T14:47:36;14.00;3.00
46898;DHT22;32646;50.958;6.258;2024-03-02T14:50:03;14.10;2.50
46898;DHT22;32646;50.958;6.258;2024-03-02T14:52:30;14.30;1.50
46898;DHT22;32646;50.958;6.258;2024-03-02T14:54:56;14.20;2.40
46898;DHT22;32646;50.958;6.258;2024-03-02T14:57:23;14.20;2.20
46898;DHT22;32646;50.958;6.258;2024-03-02T14:59:50;14.10;3.40
46898;DHT22;32646;50.958;6.258;2024-03-02T15:02:16;13.90;3.10
46898;DHT22;32646;50.958;6.258;2024-03-02T15:04:43;13.80;3.30
46898;DHT22;32646;50.958;6.258;2024-03-02T15:07:10;13.60;4.20
46898;DHT22;32646;50.958;6.258;2024-03-02T15:09:36;13.50;3.50
46898;DHT22;32646;50.958;6.258;2024-03-02T15:12:04;13.50;3.30
46898;DHT22;32646;50.958;6.258;2024-03-02T15:14:31;13.40;4.80
46898;DHT22;32646;50.958;6.258;2024-03-02T15:16:58;13.30;4.00
46898;DHT22;32646;50.958;6.258;2024-03-02T15:19:25;13.20;4.10
46898;DHT22;32646;50.958;6.258;2024-03-02T15:21:51;13.20;3.20
46898;DHT22;32646;50.958;6.258;2024-03-02T15:24:18;13.20;3.80
46898;DHT22;32646;50.958;6.258;2024-03-02T15:26:45;13.20;4.50
46898;DHT22;32646;50.958;6.258;2024-03-02T15:29:12;13.20;3.50
46898;DHT22;32646;50.958;6.258;2024-03-02T15:31:39;13.20;3.80
46898;DHT22;32646;50.958;6.258;2024-03-02T15:34:05;13.10;5.40
46898;DHT22;32646;50.958;6.258;2024-03-02T15:36:32;13.00;7.10
46898;DHT22;32646;50.958;6.258;2024-03-02T15:38:59;13.00;8.30
46898;DHT22;32646;50.958;6.258;2024-03-02T15:41:26;13.00;8.20
46898;DHT22;32646;50.958;6.258;2024-03-02T15:43:53;13.00;7.30
46898;DHT22;32646;50.958;6.258;2024-03-02T15:46:19;13.10;8.20
46898;DHT22;32646;50.958;6.258;2024-03-02T15:48:46;13.00;8.50
46898;DHT22;32646;50.958;6.258;2024-03-02T15:51:13;13.00;9.00
46898;DHT22;32646;50.958;6.258;2024-03-02T15:53:39;13.00;7.90